sensor_id;sensor_type;location;lat;lon;timestamp;P1;durP1;ratioP1;P2;durP2;ratioP2
31206;SDS011;17834;52.992;8.856;2023-06-24T00:01:48;13.55;;;6.60;;
31206;SDS011;17834;52.992;8.856;2023-06-24T00:04:14;11.07;;;6.63;;
31206;SDS011;17834;52.992;8.856;2023-06-24T00:06:42;11.50;;;6.90;;
31206;SDS011;17834;52.992;8.856;2023-06-24T00:09:08;10.95;;;6.38;;
31206;SDS011;17834;52.992;8.856;2023-06-24T00:11:33;10.80;;;6.47;;
31206;SDS011;17834;52.992;8.856;2023-06-24T00:13:59;13.40;;;6.40;;
31206;SDS011;17834;52.992;8.856;2023-06-24T00:16:24;11.27;;;6.75;;
31206;SDS011;17834;52.992;8.856;2023-06-24T00:18:54;12.98;;;7.97;;
31206;SDS011;17834;52.992;8.856;2023-06-24T00:21:25;12.07;;;6.95;;
31206;SDS011;17834;52.992;8.856;2023-06-24T00:23:57;12.05;;;6.90;;
31206;SDS011;17834;52.992;8.856;2023-06-24T00:26:23;13.48;;;7.00;;
31206;SDS011;17834;52.992;8.856;2023-06-24T00:28:49;12.82;;;6.65;;
31206;SDS011;17834;52.992;8.856;2023-06-24T00:31:15;12.60;;;7.10;;
31206;SDS011;17834;52.992;8.856;2023-06-24T00:33:41;13.45;;;7.18;;
31206;SDS011;17834;52.992;8.856;2023-06-24T00:36:07;13.43;;;8.20;;
31206;SDS011;17834;52.992;8.856;2023-06-24T00:38:36;14.23;;;7.22;;
31206;SDS011;17834;52.992;8.856;2023-06-24T00:41:05;14.65;;;7.68;;
31206;SDS011;17834;52.992;8.856;2023-06-24T00:43:32;14.20;;;8.32;;
31206;SDS011;17834;52.992;8.856;2023-06-24T00:45:57;16.38;;;7.95;;
31206;SDS011;17834;52.992;8.856;2023-06-24T00:48:23;19.55;;;8.05;;
31206;SDS011;17834;52.992;8.856;2023-06-24T00:50:49;14.57;;;7.82;;
31206;SDS011;17834;52.992;8.856;2023-06-24T00:53:16;16.95;;;8.35;;
31206;SDS011;17834;52.992;8.856;2023-06-24T00:55:41;17.05;;;8.90;;
31206;SDS011;17834;52.992;8.856;2023-06-24T00:58:08;16.02;;;8.82;;
31206;SDS011;17834;52.992;8.856;2023-06-24T01:00:33;16.30;;;8.38;;
31206;SDS011;17834;52.992;8.856;2023-06-24T01:02:59;13.98;;;7.45;;
31206;SDS011;17834;52.992;8.856;2023-06-24T01:05:25;15.10;;;8.25;;
31206;SDS011;17834;52.992;8.856;2023-06-24T01:07:53;14.30;;;7.57;;
31206;SDS011;17834;52.992;8.856;2023-06-24T01:10:20;17.15;;;8.98;;
31206;SDS011;17834;52.992;8.856;2023-06-24T01:12:49;17.58;;;8.90;;
31206;SDS011;17834;52.992;8.856;2023-06-24T01:15:15;15.43;;;7.85;;
31206;SDS011;17834;52.992;8.856;2023-06-24T01:17:45;14.43;;;7.93;;
31206;SDS011;17834;52.992;8.856;2023-06-24T01:23:15;19.90;;;9.68;;
31206;SDS011;17834;52.992;8.856;2023-06-24T01:26:19;14.38;;;8.32;;
31206;SDS011;17834;52.992;8.856;2023-06-24T01:31:41;22.15;;;9.05;;
31206;SDS011;17834;52.992;8.856;2023-06-24T01:39:26;19.55;;;9.57;;
31206;SDS011;17834;52.992;8.856;2023-06-24T01:42:00;15.88;;;8.50;;
31206;SDS011;17834;52.992;8.856;2023-06-24T01:44:31;16.65;;;8.38;;
31206;SDS011;17834;52.992;8.856;2023-06-24T01:46:58;16.70;;;8.85;;
31206;SDS011;17834;52.992;8.856;2023-06-24T01:49:27;16.40;;;9.77;;
31206;SDS011;17834;52.992;8.856;2023-06-24T01:51:54;19.83;;;9.82;;
31206;SDS011;17834;52.992;8.856;2023-06-24T01:54:23;19.25;;;9.73;;
31206;SDS011;17834;52.992;8.856;2023-06-24T01:56:51;19.10;;;9.27;;
31206;SDS011;17834;52.992;8.856;2023-06-24T01:59:19;18.75;;;10.25;;
31206;SDS011;17834;52.992;8.856;2023-06-24T02:01:46;22.85;;;10.48;;
31206;SDS011;17834;52.992;8.856;2023-06-24T02:04:13;16.15;;;9.13;;
31206;SDS011;17834;52.992;8.856;2023-06-24T02:06:41;17.27;;;9.40;;
31206;SDS011;17834;52.992;8.856;2023-06-24T02:09:07;19.05;;;9.40;;
31206;SDS011;17834;52.992;8.856;2023-06-24T02:11:34;20.67;;;9.65;;
31206;SDS011;17834;52.992;8.856;2023-06-24T02:14:01;18.13;;;9.98;;
31206;SDS011;17834;52.992;8.856;2023-06-24T02:16:28;17.38;;;9.80;;
31206;SDS011;17834;52.992;8.856;2023-06-24T02:18:55;18.00;;;10.63;;
31206;SDS011;17834;52.992;8.856;2023-06-24T02:21:21;17.83;;;9.35;;
31206;SDS011;17834;52.992;8.856;2023-06-24T02:23:48;19.92;;;10.80;;
31206;SDS011;17834;52.992;8.856;2023-06-24T02:26:14;17.73;;;9.20;;
31206;SDS011;17834;52.992;8.856;2023-06-24T02:28:40;23.08;;;11.32;;
31206;SDS011;17834;52.992;8.856;2023-06-24T02:31:08;20.55;;;10.57;;
31206;SDS011;17834;52.992;8.856;2023-06-24T02:33:35;20.38;;;10.73;;
31206;SDS011;17834;52.992;8.856;2023-06-24T02:36:01;19.30;;;9.63;;
31206;SDS011;17834;52.992;8.856;2023-06-24T02:38:26;20.42;;;10.93;;
31206;SDS011;17834;52.992;8.856;2023-06-24T02:40:52;21.42;;;11.27;;
31206;SDS011;17834;52.992;8.856;2023-06-24T02:43:18;19.75;;;11.50;;
31206;SDS011;17834;52.992;8.856;2023-06-24T02:45:44;23.92;;;11.38;;
31206;SDS011;17834;52.992;8.856;2023-06-24T02:48:11;18.40;;;9.43;;
31206;SDS011;17834;52.992;8.856;2023-06-24T02:50:37;20.65;;;10.40;;
31206;SDS011;17834;52.992;8.856;2023-06-24T02:53:04;22.58;;;10.40;;
31206;SDS011;17834;52.992;8.856;2023-06-24T02:55:30;19.83;;;9.85;;
31206;SDS011;17834;52.992;8.856;2023-06-24T02:57:57;19.63;;;10.90;;
31206;SDS011;17834;52.992;8.856;2023-06-24T03:00:23;18.25;;;9.65;;
31206;SDS011;17834;52.992;8.856;2023-06-24T03:02:49;19.35;;;9.50;;
31206;SDS011;17834;52.992;8.856;2023-06-24T03:05:15;20.25;;;10.50;;
31206;SDS011;17834;52.992;8.856;2023-06-24T03:07:42;18.75;;;10.75;;
31206;SDS011;17834;52.992;8.856;2023-06-24T03:10:08;18.80;;;10.45;;
31206;SDS011;17834;52.992;8.856;2023-06-24T03:12:35;19.63;;;10.25;;
31206;SDS011;17834;52.992;8.856;2023-06-24T03:15:01;29.13;;;12.95;;
31206;SDS011;17834;52.992;8.856;2023-06-24T03:17:26;22.42;;;12.23;;
31206;SDS011;17834;52.992;8.856;2023-06-24T03:19:52;21.90;;;10.57;;
31206;SDS011;17834;52.992;8.856;2023-06-24T03:22:18;25.55;;;11.65;;
31206;SDS011;17834;52.992;8.856;2023-06-24T03:24:43;23.45;;;11.45;;
31206;SDS011;17834;52.992;8.856;2023-06-24T03:27:09;23.95;;;11.80;;
31206;SDS011;17834;52.992;8.856;2023-06-24T03:29:34;25.00;;;11.27;;
31206;SDS011;17834;52.992;8.856;2023-06-24T03:32:00;24.25;;;11.38;;
31206;SDS011;17834;52.992;8.856;2023-06-24T03:34:25;26.58;;;12.02;;
31206;SDS011;17834;52.992;8.856;2023-06-24T03:36:52;22.77;;;10.85;;
31206;SDS011;17834;52.992;8.856;2023-06-24T03:39:19;24.20;;;11.32;;
31206;SDS011;17834;52.992;8.856;2023-06-24T03:41:45;19.85;;;10.27;;
31206;SDS011;17834;52.992;8.856;2023-06-24T03:44:11;21.67;;;11.27;;
31206;SDS011;17834;52.992;8.856;2023-06-24T03:46:36;22.80;;;11.55;;
31206;SDS011;17834;52.992;8.856;2023-06-24T03:49:02;25.27;;;11.65;;
31206;SDS011;17834;52.992;8.856;2023-06-24T03:51:27;26.95;;;11.20;;
31206;SDS011;17834;52.992;8.856;2023-06-24T03:53:53;24.75;;;11.52;;
31206;SDS011;17834;52.992;8.856;2023-06-24T03:56:18;26.85;;;12.10;;
31206;SDS011;17834;52.992;8.856;2023-06-24T03:58:44;25.10;;;11.38;;
31206;SDS011;17834;52.992;8.856;2023-06-24T04:01:09;23.38;;;12.10;;
31206;SDS011;17834;52.992;8.856;2023-06-24T04:03:35;26.40;;;11.77;;
31206;SDS011;17834;52.992;8.856;2023-06-24T04:06:01;23.65;;;11.65;;
31206;SDS011;17834;52.992;8.856;2023-06-24T04:08:26;21.20;;;11.18;;
31206;SDS011;17834;52.992;8.856;2023-06-24T04:10:54;29.42;;;13.98;;
31206;SDS011;17834;52.992;8.856;2023-06-24T04:13:20;26.88;;;13.15;;
31206;SDS011;17834;52.992;8.856;2023-06-24T04:15:45;25.90;;;11.88;;
31206;SDS011;17834;52.992;8.856;2023-06-24T04:18:11;25.58;;;12.70;;
31206;SDS011;17834;52.992;8.856;2023-06-24T04:20:37;32.53;;;14.48;;
31206;SDS011;17834;52.992;8.856;2023-06-24T04:23:03;31.75;;;15.38;;
31206;SDS011;17834;52.992;8.856;2023-06-24T04:25:29;32.90;;;15.15;;
31206;SDS011;17834;52.992;8.856;2023-06-24T04:27:55;34.83;;;14.65;;
31206;SDS011;17834;52.992;8.856;2023-06-24T04:30:20;38.83;;;16.15;;
31206;SDS011;17834;52.992;8.856;2023-06-24T04:32:46;36.95;;;16.90;;
31206;SDS011;17834;52.992;8.856;2023-06-24T04:35:11;35.63;;;15.48;;
31206;SDS011;17834;52.992;8.856;2023-06-24T04:37:37;38.03;;;17.70;;
31206;SDS011;17834;52.992;8.856;2023-06-24T04:40:02;37.03;;;17.42;;
31206;SDS011;17834;52.992;8.856;2023-06-24T04:42:28;29.58;;;16.13;;
31206;SDS011;17834;52.992;8.856;2023-06-24T04:44:55;28.92;;;14.38;;
31206;SDS011;17834;52.992;8.856;2023-06-24T04:47:20;19.15;;;12.00;;
31206;SDS011;17834;52.992;8.856;2023-06-24T04:49:46;14.38;;;9.98;;
31206;SDS011;17834;52.992;8.856;2023-06-24T04:52:11;17.08;;;10.20;;
31206;SDS011;17834;52.992;8.856;2023-06-24T04:54:37;16.02;;;8.82;;
31206;SDS011;17834;52.992;8.856;2023-06-24T04:57:05;14.60;;;8.48;;
31206;SDS011;17834;52.992;8.856;2023-06-24T04:59:33;13.07;;;8.32;;
31206;SDS011;17834;52.992;8.856;2023-06-24T05:01:58;12.55;;;7.65;;
31206;SDS011;17834;52.992;8.856;2023-06-24T05:04:24;13.50;;;7.63;;
31206;SDS011;17834;52.992;8.856;2023-06-24T05:06:49;12.90;;;7.20;;
31206;SDS011;17834;52.992;8.856;2023-06-24T05:09:15;11.13;;;7.68;;
31206;SDS011;17834;52.992;8.856;2023-06-24T05:11:40;11.52;;;7.57;;
31206;SDS011;17834;52.992;8.856;2023-06-24T05:14:06;14.23;;;7.63;;
31206;SDS011;17834;52.992;8.856;2023-06-24T05:16:32;13.90;;;8.02;;
31206;SDS011;17834;52.992;8.856;2023-06-24T05:18:57;11.63;;;7.88;;
31206;SDS011;17834;52.992;8.856;2023-06-24T05:21:23;14.15;;;7.78;;
31206;SDS011;17834;52.992;8.856;2023-06-24T05:23:48;10.88;;;7.57;;
31206;SDS011;17834;52.992;8.856;2023-06-24T05:26:14;13.13;;;6.93;;
31206;SDS011;17834;52.992;8.856;2023-06-24T05:28:40;14.90;;;7.50;;
31206;SDS011;17834;52.992;8.856;2023-06-24T05:31:05;20.92;;;8.23;;
31206;SDS011;17834;52.992;8.856;2023-06-24T05:33:31;11.30;;;7.32;;
31206;SDS011;17834;52.992;8.856;2023-06-24T05:35:56;16.60;;;8.35;;
31206;SDS011;17834;52.992;8.856;2023-06-24T05:38:22;11.55;;;6.95;;
31206;SDS011;17834;52.992;8.856;2023-06-24T05:40:47;15.07;;;7.75;;
31206;SDS011;17834;52.992;8.856;2023-06-24T05:43:13;12.88;;;8.00;;
31206;SDS011;17834;52.992;8.856;2023-06-24T05:45:38;13.60;;;8.27;;
31206;SDS011;17834;52.992;8.856;2023-06-24T05:48:04;14.65;;;7.72;;
31206;SDS011;17834;52.992;8.856;2023-06-24T05:50:30;11.50;;;7.10;;
31206;SDS011;17834;52.992;8.856;2023-06-24T05:52:55;14.50;;;6.72;;
31206;SDS011;17834;52.992;8.856;2023-06-24T05:55:21;12.13;;;5.93;;
31206;SDS011;17834;52.992;8.856;2023-06-24T05:57:46;8.10;;;5.50;;
31206;SDS011;17834;52.992;8.856;2023-06-24T06:00:12;10.48;;;5.05;;
31206;SDS011;17834;52.992;8.856;2023-06-24T06:02:38;6.72;;;4.28;;
31206;SDS011;17834;52.992;8.856;2023-06-24T06:05:04;6.68;;;4.95;;
31206;SDS011;17834;52.992;8.856;2023-06-24T06:07:29;10.07;;;4.57;;
31206;SDS011;17834;52.992;8.856;2023-06-24T06:09:55;10.85;;;4.72;;
31206;SDS011;17834;52.992;8.856;2023-06-24T06:12:20;8.43;;;5.20;;
31206;SDS011;17834;52.992;8.856;2023-06-24T06:14:46;10.30;;;4.63;;
31206;SDS011;17834;52.992;8.856;2023-06-24T06:17:12;7.72;;;4.57;;
31206;SDS011;17834;52.992;8.856;2023-06-24T06:19:38;9.35;;;5.40;;
31206;SDS011;17834;52.992;8.856;2023-06-24T06:22:06;7.88;;;4.93;;
31206;SDS011;17834;52.992;8.856;2023-06-24T06:24:32;6.15;;;4.13;;
31206;SDS011;17834;52.992;8.856;2023-06-24T06:26:58;6.35;;;4.10;;
31206;SDS011;17834;52.992;8.856;2023-06-24T06:29:24;6.50;;;4.53;;
31206;SDS011;17834;52.992;8.856;2023-06-24T06:31:49;5.32;;;3.97;;
31206;SDS011;17834;52.992;8.856;2023-06-24T06:34:15;7.07;;;4.10;;
31206;SDS011;17834;52.992;8.856;2023-06-24T06:36:40;9.40;;;3.47;;
31206;SDS011;17834;52.992;8.856;2023-06-24T06:39:06;5.97;;;3.95;;
31206;SDS011;17834;52.992;8.856;2023-06-24T06:41:31;5.20;;;3.83;;
31206;SDS011;17834;52.992;8.856;2023-06-24T06:43:57;6.78;;;4.70;;
31206;SDS011;17834;52.992;8.856;2023-06-24T06:46:22;7.45;;;4.18;;
31206;SDS011;17834;52.992;8.856;2023-06-24T06:48:48;10.73;;;5.93;;
31206;SDS011;17834;52.992;8.856;2023-06-24T06:51:13;5.47;;;3.35;;
31206;SDS011;17834;52.992;8.856;2023-06-24T06:53:39;8.82;;;4.22;;
31206;SDS011;17834;52.992;8.856;2023-06-24T06:56:04;7.43;;;3.15;;
31206;SDS011;17834;52.992;8.856;2023-06-24T06:58:30;5.65;;;3.10;;
31206;SDS011;17834;52.992;8.856;2023-06-24T07:00:55;6.07;;;2.95;;
31206;SDS011;17834;52.992;8.856;2023-06-24T07:03:26;5.00;;;2.95;;
31206;SDS011;17834;52.992;8.856;2023-06-24T07:05:52;4.57;;;3.08;;
31206;SDS011;17834;52.992;8.856;2023-06-24T07:08:18;6.10;;;2.83;;
31206;SDS011;17834;52.992;8.856;2023-06-24T07:10:43;4.80;;;2.88;;
31206;SDS011;17834;52.992;8.856;2023-06-24T07:13:09;5.32;;;2.75;;
31206;SDS011;17834;52.992;8.856;2023-06-24T07:15:35;4.15;;;2.92;;
31206;SDS011;17834;52.992;8.856;2023-06-24T07:18:00;4.10;;;2.97;;
31206;SDS011;17834;52.992;8.856;2023-06-24T07:20:26;5.82;;;2.78;;
31206;SDS011;17834;52.992;8.856;2023-06-24T07:22:51;3.78;;;2.50;;
31206;SDS011;17834;52.992;8.856;2023-06-24T07:25:17;7.63;;;2.97;;
31206;SDS011;17834;52.992;8.856;2023-06-24T07:27:42;5.07;;;3.28;;
31206;SDS011;17834;52.992;8.856;2023-06-24T07:30:08;4.38;;;2.83;;
31206;SDS011;17834;52.992;8.856;2023-06-24T07:32:33;6.70;;;3.10;;
31206;SDS011;17834;52.992;8.856;2023-06-24T07:34:59;7.30;;;3.13;;
31206;SDS011;17834;52.992;8.856;2023-06-24T07:37:24;5.00;;;3.22;;
31206;SDS011;17834;52.992;8.856;2023-06-24T07:39:50;4.05;;;3.10;;
31206;SDS011;17834;52.992;8.856;2023-06-24T07:42:15;5.20;;;3.15;;
31206;SDS011;17834;52.992;8.856;2023-06-24T07:44:47;4.97;;;2.60;;
31206;SDS011;17834;52.992;8.856;2023-06-24T07:47:13;6.35;;;3.10;;
31206;SDS011;17834;52.992;8.856;2023-06-24T07:49:39;4.47;;;2.65;;
31206;SDS011;17834;52.992;8.856;2023-06-24T07:52:05;4.20;;;2.70;;
31206;SDS011;17834;52.992;8.856;2023-06-24T07:54:31;4.35;;;3.20;;
31206;SDS011;17834;52.992;8.856;2023-06-24T07:56:56;4.57;;;3.33;;
31206;SDS011;17834;52.992;8.856;2023-06-24T07:59:22;6.28;;;3.40;;
31206;SDS011;17834;52.992;8.856;2023-06-24T08:01:47;6.28;;;3.88;;
31206;SDS011;17834;52.992;8.856;2023-06-24T08:04:14;4.20;;;3.35;;
31206;SDS011;17834;52.992;8.856;2023-06-24T08:06:40;6.22;;;3.53;;
31206;SDS011;17834;52.992;8.856;2023-06-24T08:09:05;6.05;;;3.47;;
31206;SDS011;17834;52.992;8.856;2023-06-24T08:11:31;6.45;;;4.03;;
31206;SDS011;17834;52.992;8.856;2023-06-24T08:13:56;5.75;;;3.63;;
31206;SDS011;17834;52.992;8.856;2023-06-24T08:16:22;5.63;;;3.65;;
31206;SDS011;17834;52.992;8.856;2023-06-24T08:18:47;7.45;;;3.75;;
31206;SDS011;17834;52.992;8.856;2023-06-24T08:21:13;5.03;;;3.97;;
31206;SDS011;17834;52.992;8.856;2023-06-24T08:23:38;8.15;;;3.92;;
31206;SDS011;17834;52.992;8.856;2023-06-24T08:26:04;10.55;;;4.20;;
31206;SDS011;17834;52.992;8.856;2023-06-24T08:28:29;6.70;;;3.45;;
31206;SDS011;17834;52.992;8.856;2023-06-24T08:30:55;6.88;;;3.20;;
31206;SDS011;17834;52.992;8.856;2023-06-24T08:33:20;7.05;;;4.20;;
31206;SDS011;17834;52.992;8.856;2023-06-24T08:35:46;7.30;;;3.85;;
31206;SDS011;17834;52.992;8.856;2023-06-24T08:38:11;7.85;;;3.88;;
31206;SDS011;17834;52.992;8.856;2023-06-24T08:40:36;9.60;;;3.85;;
31206;SDS011;17834;52.992;8.856;2023-06-24T08:43:05;6.22;;;3.67;;
31206;SDS011;17834;52.992;8.856;2023-06-24T08:45:31;5.97;;;3.20;;
31206;SDS011;17834;52.992;8.856;2023-06-24T08:47:57;4.78;;;3.10;;
31206;SDS011;17834;52.992;8.856;2023-06-24T08:50:26;5.82;;;3.17;;
31206;SDS011;17834;52.992;8.856;2023-06-24T08:52:56;5.65;;;3.63;;
31206;SDS011;17834;52.992;8.856;2023-06-24T08:55:23;6.13;;;3.13;;
31206;SDS011;17834;52.992;8.856;2023-06-24T08:57:52;4.70;;;3.13;;
31206;SDS011;17834;52.992;8.856;2023-06-24T09:00:17;5.40;;;3.00;;
31206;SDS011;17834;52.992;8.856;2023-06-24T09:02:43;3.97;;;3.03;;
31206;SDS011;17834;52.992;8.856;2023-06-24T09:05:09;4.95;;;3.40;;
31206;SDS011;17834;52.992;8.856;2023-06-24T09:07:34;5.25;;;3.13;;
31206;SDS011;17834;52.992;8.856;2023-06-24T09:10:00;6.63;;;3.58;;
31206;SDS011;17834;52.992;8.856;2023-06-24T09:12:25;7.35;;;3.40;;
31206;SDS011;17834;52.992;8.856;2023-06-24T09:14:51;5.93;;;3.17;;
31206;SDS011;17834;52.992;8.856;2023-06-24T09:17:17;4.75;;;3.08;;
31206;SDS011;17834;52.992;8.856;2023-06-24T09:19:43;5.68;;;3.20;;
31206;SDS011;17834;52.992;8.856;2023-06-24T09:22:09;6.38;;;3.03;;
31206;SDS011;17834;52.992;8.856;2023-06-24T09:24:42;5.97;;;3.53;;
31206;SDS011;17834;52.992;8.856;2023-06-24T09:27:11;4.97;;;2.60;;
31206;SDS011;17834;52.992;8.856;2023-06-24T09:29:41;4.10;;;2.22;;
31206;SDS011;17834;52.992;8.856;2023-06-24T09:32:07;5.65;;;3.08;;
31206;SDS011;17834;52.992;8.856;2023-06-24T09:34:33;4.90;;;3.17;;
31206;SDS011;17834;52.992;8.856;2023-06-24T09:36:59;6.72;;;3.25;;
31206;SDS011;17834;52.992;8.856;2023-06-24T09:39:26;5.95;;;3.25;;
31206;SDS011;17834;52.992;8.856;2023-06-24T09:41:57;6.30;;;3.10;;
31206;SDS011;17834;52.992;8.856;2023-06-24T09:44:26;3.88;;;2.40;;
31206;SDS011;17834;52.992;8.856;2023-06-24T09:46:52;4.68;;;3.13;;
31206;SDS011;17834;52.992;8.856;2023-06-24T09:49:18;5.35;;;3.30;;
31206;SDS011;17834;52.992;8.856;2023-06-24T09:51:45;8.68;;;3.05;;
31206;SDS011;17834;52.992;8.856;2023-06-24T09:54:12;6.18;;;3.40;;
31206;SDS011;17834;52.992;8.856;2023-06-24T09:56:43;7.85;;;3.78;;
31206;SDS011;17834;52.992;8.856;2023-06-24T09:59:13;6.43;;;3.78;;
31206;SDS011;17834;52.992;8.856;2023-06-24T10:01:40;7.32;;;3.40;;
31206;SDS011;17834;52.992;8.856;2023-06-24T10:04:07;5.20;;;2.95;;
31206;SDS011;17834;52.992;8.856;2023-06-24T10:06:34;6.43;;;3.15;;
31206;SDS011;17834;52.992;8.856;2023-06-24T10:09:00;5.45;;;3.50;;
31206;SDS011;17834;52.992;8.856;2023-06-24T10:11:26;4.95;;;3.10;;
31206;SDS011;17834;52.992;8.856;2023-06-24T10:13:52;6.07;;;3.53;;
31206;SDS011;17834;52.992;8.856;2023-06-24T10:16:18;7.70;;;3.15;;
31206;SDS011;17834;52.992;8.856;2023-06-24T10:18:44;6.63;;;3.80;;
31206;SDS011;17834;52.992;8.856;2023-06-24T10:21:10;6.90;;;3.63;;
31206;SDS011;17834;52.992;8.856;2023-06-24T10:26:22;5.13;;;3.10;;
31206;SDS011;17834;52.992;8.856;2023-06-24T10:32:02;7.13;;;3.90;;
31206;SDS011;17834;52.992;8.856;2023-06-24T10:34:33;6.10;;;4.07;;
31206;SDS011;17834;52.992;8.856;2023-06-24T10:37:04;6.53;;;3.38;;
31206;SDS011;17834;52.992;8.856;2023-06-24T10:44:57;9.57;;;4.30;;
31206;SDS011;17834;52.992;8.856;2023-06-24T10:47:25;8.75;;;4.63;;
31206;SDS011;17834;52.992;8.856;2023-06-24T10:49:52;5.70;;;3.72;;
31206;SDS011;17834;52.992;8.856;2023-06-24T10:52:21;6.40;;;3.88;;
31206;SDS011;17834;52.992;8.856;2023-06-24T10:54:48;9.70;;;4.10;;
31206;SDS011;17834;52.992;8.856;2023-06-24T10:57:14;7.07;;;3.58;;
31206;SDS011;17834;52.992;8.856;2023-06-24T10:59:40;7.88;;;4.18;;
31206;SDS011;17834;52.992;8.856;2023-06-24T11:02:13;7.55;;;4.00;;
31206;SDS011;17834;52.992;8.856;2023-06-24T11:04:43;8.70;;;4.80;;
31206;SDS011;17834;52.992;8.856;2023-06-24T11:07:13;9.00;;;4.50;;
31206;SDS011;17834;52.992;8.856;2023-06-24T11:09:40;8.13;;;4.68;;
31206;SDS011;17834;52.992;8.856;2023-06-24T11:12:10;7.78;;;3.88;;
31206;SDS011;17834;52.992;8.856;2023-06-24T11:14:36;8.07;;;4.57;;
31206;SDS011;17834;52.992;8.856;2023-06-24T11:17:03;6.97;;;4.22;;
31206;SDS011;17834;52.992;8.856;2023-06-24T11:19:29;8.27;;;4.85;;
31206;SDS011;17834;52.992;8.856;2023-06-24T11:22:02;8.10;;;5.10;;
31206;SDS011;17834;52.992;8.856;2023-06-24T11:24:28;6.53;;;4.22;;
31206;SDS011;17834;52.992;8.856;2023-06-24T11:26:53;9.77;;;5.00;;
31206;SDS011;17834;52.992;8.856;2023-06-24T11:29:19;7.78;;;4.75;;
31206;SDS011;17834;52.992;8.856;2023-06-24T11:31:45;8.77;;;4.65;;
31206;SDS011;17834;52.992;8.856;2023-06-24T11:34:11;9.10;;;4.97;;
31206;SDS011;17834;52.992;8.856;2023-06-24T11:36:36;9.23;;;4.78;;
31206;SDS011;17834;52.992;8.856;2023-06-24T11:39:02;8.63;;;4.50;;
31206;SDS011;17834;52.992;8.856;2023-06-24T11:41:28;7.10;;;5.20;;
31206;SDS011;17834;52.992;8.856;2023-06-24T11:43:53;8.98;;;4.57;;
31206;SDS011;17834;52.992;8.856;2023-06-24T11:46:26;5.80;;;3.97;;
31206;SDS011;17834;52.992;8.856;2023-06-24T11:49:04;12.90;;;4.57;;
31206;SDS011;17834;52.992;8.856;2023-06-24T11:51:34;6.20;;;3.95;;
31206;SDS011;17834;52.992;8.856;2023-06-24T11:54:04;5.43;;;3.90;;
31206;SDS011;17834;52.992;8.856;2023-06-24T11:56:34;7.55;;;4.28;;
31206;SDS011;17834;52.992;8.856;2023-06-24T11:59:03;8.18;;;4.63;;
31206;SDS011;17834;52.992;8.856;2023-06-24T12:01:31;6.82;;;4.60;;
31206;SDS011;17834;52.992;8.856;2023-06-24T12:04:12;7.13;;;4.45;;
31206;SDS011;17834;52.992;8.856;2023-06-24T12:06:41;7.43;;;4.03;;
31206;SDS011;17834;52.992;8.856;2023-06-24T12:09:07;5.88;;;4.53;;
31206;SDS011;17834;52.992;8.856;2023-06-24T12:11:33;5.97;;;4.18;;
31206;SDS011;17834;52.992;8.856;2023-06-24T12:13:59;6.22;;;4.28;;
31206;SDS011;17834;52.992;8.856;2023-06-24T12:16:24;5.97;;;4.03;;
31206;SDS011;17834;52.992;8.856;2023-06-24T12:18:51;11.77;;;5.28;;
31206;SDS011;17834;52.992;8.856;2023-06-24T12:21:17;6.47;;;4.13;;
31206;SDS011;17834;52.992;8.856;2023-06-24T12:23:42;5.88;;;4.22;;
31206;SDS011;17834;52.992;8.856;2023-06-24T12:26:08;7.70;;;4.70;;
31206;SDS011;17834;52.992;8.856;2023-06-24T12:28:33;6.07;;;4.00;;
31206;SDS011;17834;52.992;8.856;2023-06-24T12:30:59;7.32;;;4.30;;
31206;SDS011;17834;52.992;8.856;2023-06-24T12:33:24;6.55;;;4.80;;
31206;SDS011;17834;52.992;8.856;2023-06-24T12:35:50;7.30;;;3.90;;
31206;SDS011;17834;52.992;8.856;2023-06-24T12:38:15;5.18;;;3.45;;
31206;SDS011;17834;52.992;8.856;2023-06-24T12:40:41;6.88;;;3.78;;
31206;SDS011;17834;52.992;8.856;2023-06-24T12:43:07;7.10;;;3.70;;
31206;SDS011;17834;52.992;8.856;2023-06-24T12:45:33;4.93;;;3.72;;
31206;SDS011;17834;52.992;8.856;2023-06-24T12:47:58;8.63;;;4.65;;
31206;SDS011;17834;52.992;8.856;2023-06-24T12:50:24;5.20;;;3.50;;
31206;SDS011;17834;52.992;8.856;2023-06-24T12:52:50;5.18;;;3.80;;
31206;SDS011;17834;52.992;8.856;2023-06-24T12:55:15;8.50;;;4.63;;
31206;SDS011;17834;52.992;8.856;2023-06-24T12:57:41;5.15;;;3.50;;
31206;SDS011;17834;52.992;8.856;2023-06-24T13:00:06;5.32;;;3.95;;
31206;SDS011;17834;52.992;8.856;2023-06-24T13:02:33;5.72;;;3.88;;
31206;SDS011;17834;52.992;8.856;2023-06-24T13:05:00;6.40;;;3.65;;
31206;SDS011;17834;52.992;8.856;2023-06-24T13:07:25;7.05;;;4.28;;
31206;SDS011;17834;52.992;8.856;2023-06-24T13:09:51;6.75;;;4.18;;
31206;SDS011;17834;52.992;8.856;2023-06-24T13:12:16;6.10;;;3.72;;
31206;SDS011;17834;52.992;8.856;2023-06-24T13:14:42;4.68;;;3.72;;
31206;SDS011;17834;52.992;8.856;2023-06-24T13:17:07;5.65;;;3.95;;
31206;SDS011;17834;52.992;8.856;2023-06-24T13:19:33;6.75;;;4.50;;
31206;SDS011;17834;52.992;8.856;2023-06-24T13:21:58;9.57;;;4.35;;
31206;SDS011;17834;52.992;8.856;2023-06-24T13:24:24;5.72;;;3.50;;
31206;SDS011;17834;52.992;8.856;2023-06-24T13:26:50;5.85;;;3.50;;
31206;SDS011;17834;52.992;8.856;2023-06-24T13:29:16;6.95;;;3.95;;
31206;SDS011;17834;52.992;8.856;2023-06-24T13:31:42;5.03;;;3.85;;
31206;SDS011;17834;52.992;8.856;2023-06-24T13:34:07;6.80;;;3.80;;
31206;SDS011;17834;52.992;8.856;2023-06-24T13:36:34;7.53;;;4.15;;
31206;SDS011;17834;52.992;8.856;2023-06-24T13:39:00;5.55;;;4.05;;
31206;SDS011;17834;52.992;8.856;2023-06-24T13:41:27;5.90;;;4.47;;
31206;SDS011;17834;52.992;8.856;2023-06-24T13:43:55;5.53;;;4.68;;
31206;SDS011;17834;52.992;8.856;2023-06-24T13:46:21;7.03;;;4.45;;
31206;SDS011;17834;52.992;8.856;2023-06-24T13:48:48;4.93;;;3.92;;
31206;SDS011;17834;52.992;8.856;2023-06-24T13:51:14;5.38;;;4.43;;
31206;SDS011;17834;52.992;8.856;2023-06-24T13:53:40;5.55;;;4.70;;
31206;SDS011;17834;52.992;8.856;2023-06-24T13:56:05;8.13;;;5.40;;
31206;SDS011;17834;52.992;8.856;2023-06-24T13:58:31;6.70;;;4.75;;
31206;SDS011;17834;52.992;8.856;2023-06-24T14:00:56;6.47;;;5.38;;
31206;SDS011;17834;52.992;8.856;2023-06-24T14:03:22;8.70;;;5.97;;
31206;SDS011;17834;52.992;8.856;2023-06-24T14:05:47;6.28;;;4.70;;
31206;SDS011;17834;52.992;8.856;2023-06-24T14:08:13;7.30;;;4.88;;
31206;SDS011;17834;52.992;8.856;2023-06-24T14:10:38;6.80;;;5.10;;
31206;SDS011;17834;52.992;8.856;2023-06-24T14:13:04;6.50;;;5.28;;
31206;SDS011;17834;52.992;8.856;2023-06-24T14:15:30;6.63;;;5.63;;
31206;SDS011;17834;52.992;8.856;2023-06-24T14:17:55;8.40;;;7.00;;
31206;SDS011;17834;52.992;8.856;2023-06-24T14:20:21;11.02;;;6.97;;
31206;SDS011;17834;52.992;8.856;2023-06-24T14:22:47;8.52;;;6.40;;
31206;SDS011;17834;52.992;8.856;2023-06-24T14:25:12;7.68;;;6.00;;
31206;SDS011;17834;52.992;8.856;2023-06-24T14:27:37;10.32;;;6.97;;
31206;SDS011;17834;52.992;8.856;2023-06-24T14:30:04;9.13;;;7.30;;
31206;SDS011;17834;52.992;8.856;2023-06-24T14:32:30;7.75;;;6.82;;
31206;SDS011;17834;52.992;8.856;2023-06-24T14:34:55;7.78;;;6.38;;
31206;SDS011;17834;52.992;8.856;2023-06-24T14:37:21;9.60;;;8.60;;
31206;SDS011;17834;52.992;8.856;2023-06-24T14:39:46;9.43;;;7.65;;
31206;SDS011;17834;52.992;8.856;2023-06-24T14:42:12;11.07;;;8.63;;
31206;SDS011;17834;52.992;8.856;2023-06-24T14:44:37;9.10;;;8.05;;
31206;SDS011;17834;52.992;8.856;2023-06-24T14:47:03;9.13;;;8.23;;
31206;SDS011;17834;52.992;8.856;2023-06-24T14:49:28;8.68;;;6.78;;
31206;SDS011;17834;52.992;8.856;2023-06-24T14:51:54;9.13;;;8.15;;
31206;SDS011;17834;52.992;8.856;2023-06-24T14:54:20;7.10;;;6.15;;
31206;SDS011;17834;52.992;8.856;2023-06-24T14:56:45;9.27;;;7.25;;
31206;SDS011;17834;52.992;8.856;2023-06-24T14:59:12;9.10;;;7.05;;